Terminal Aerodrome Forecast
Issued by NWS

Home | Current Version | Previous Version | Text Only | Print | Product List | Glossary On
Versions: 1 2 3 4 5 6 7 8 9 10 11 12 13 14 15 16 17 18 19 20 21 22 23 24 25 26 27 28 29 30
000
FTUS45 KREV 272300
TAFTRK
TAF
KTRK 272320Z 2800/2824 25014G24KT P6SM SKC
     FM280400 22006KT P6SM SCT200
     FM280800 VRB04KT P6SM SCT200
     FM282200 24007KT P6SM SCT200=

USA.gov is the U.S. government's official web portal to all federal, state and local government web resources and services.